Metar z pełnej godziny Komunikat METAR ze strony awiacja.imgw.pl Metar G00 EPGD METAR EPGD 240500Z 19015KT 3800 -SN BR OVC006 M00/M01 Q1015 R11/190095 =